South Bend, Washington
Current Conditions -  °F | °C
As of 11:16 PM on Thursday 27 Nov 2014 (Local Time) from KHQM Reporting Station
Light Rain Light Rain  
Wind Chill: 55°   Ceiling: 1500
Heat Index: 55°   Visibility: 6mi
Dew Point: 53°   Wind: 20mph
Humidity: 93%   Direction: 190°S
Pressure: 29.72"   Gusts: NA
Location:  46.66°N, 123.8°W
Report Text: KHQM 280716Z AUTO 19017KT 6SM -RA BR FEW010 BKN015 OVC050 13/12 A2972 RMK AO2 P0001 T01280117
Loading
Personal Weather Stations






























Interactive Weather Map New forecast layout! Learn more

10-Day Weather Forecast

Advertisements
Track Severe Weather on mobile